Terminal Aerodrome Forecast
Issued by NWS

Home | Current Version | Previous Version | Text Only | Print | Product List | Glossary On
Versions: 1 2 3 4 5 6 7 8 9 10 11 12 13 14 15 16 17 18 19 20 21
000
FTUS43 KGRR 202100 AAC
TAFMKG
TAF AMD
KMKG 202129Z 2021/2118 23014KT P6SM SCT025 BKN070
      TEMPO 2021/2024 4SM -SHRA OVC040
     FM210300 27004KT P6SM OVC050
     FM211200 30006KT P6SM OVC015=

USA.gov is the U.S. government's official web portal to all federal, state and local government web resources and services.